sensor_id;sensor_type;location;lat;lon;timestamp;temperature;humidity
18888;DHT22;9576;47.792;9.628;2022-12-18T00:02:20;-4.30;99.90
18888;DHT22;9576;47.792;9.628;2022-12-18T00:05:23;-4.30;99.90
18888;DHT22;9576;47.792;9.628;2022-12-18T00:08:27;-4.20;99.90
18888;DHT22;9576;47.792;9.628;2022-12-18T00:11:30;-4.30;99.90
18888;DHT22;9576;47.792;9.628;2022-12-18T00:14:32;-4.20;99.90
18888;DHT22;9576;47.792;9.628;2022-12-18T00:17:34;-4.30;99.90
18888;DHT22;9576;47.792;9.628;2022-12-18T00:20:36;-4.10;99.90
18888;DHT22;9576;47.792;9.628;2022-12-18T00:23:42;-4.20;99.90
18888;DHT22;9576;47.792;9.628;2022-12-18T00:26:44;-4.00;99.90
18888;DHT22;9576;47.792;9.628;2022-12-18T00:29:48;-4.00;99.90
18888;DHT22;9576;47.792;9.628;2022-12-18T00:32:50;-4.00;99.90
18888;DHT22;9576;47.792;9.628;2022-12-18T00:35:52;-4.00;99.90
18888;DHT22;9576;47.792;9.628;2022-12-18T00:38:56;-3.90;99.90
18888;DHT22;9576;47.792;9.628;2022-12-18T00:41:58;-3.90;99.90
18888;DHT22;9576;47.792;9.628;2022-12-18T00:45:17;-3.90;99.90
18888;DHT22;9576;47.792;9.628;2022-12-18T00:48:19;-3.90;99.90
18888;DHT22;9576;47.792;9.628;2022-12-18T00:51:21;-4.00;99.90
18888;DHT22;9576;47.792;9.628;2022-12-18T00:54:25;-4.00;99.90
18888;DHT22;9576;47.792;9.628;2022-12-18T00:57:27;-4.00;99.90
18888;DHT22;9576;47.792;9.628;2022-12-18T01:00:28;-4.10;99.90
18888;DHT22;9576;47.792;9.628;2022-12-18T01:03:30;-4.00;99.90
18888;DHT22;9576;47.792;9.628;2022-12-18T01:06:32;-4.10;99.90
18888;DHT22;9576;47.792;9.628;2022-12-18T01:09:36;-4.00;99.90
18888;DHT22;9576;47.792;9.628;2022-12-18T01:12:38;-4.00;99.90
18888;DHT22;9576;47.792;9.628;2022-12-18T01:15:40;-4.00;99.90
18888;DHT22;9576;47.792;9.628;2022-12-18T01:18:42;-4.10;99.90
18888;DHT22;9576;47.792;9.628;2022-12-18T01:21:44;-4.10;99.90
18888;DHT22;9576;47.792;9.628;2022-12-18T01:24:47;-4.20;99.90
18888;DHT22;9576;47.792;9.628;2022-12-18T01:27:49;-4.20;99.90
18888;DHT22;9576;47.792;9.628;2022-12-18T01:30:51;-4.30;99.90
18888;DHT22;9576;47.792;9.628;2022-12-18T01:33:53;-4.40;99.90
18888;DHT22;9576;47.792;9.628;2022-12-18T01:36:55;-4.40;99.90
18888;DHT22;9576;47.792;9.628;2022-12-18T01:39:59;-4.40;99.90
18888;DHT22;9576;47.792;9.628;2022-12-18T01:43:01;-4.40;99.90
18888;DHT22;9576;47.792;9.628;2022-12-18T01:46:03;-4.50;99.90
18888;DHT22;9576;47.792;9.628;2022-12-18T01:49:04;-4.40;99.90
18888;DHT22;9576;47.792;9.628;2022-12-18T01:52:06;-4.50;99.90
18888;DHT22;9576;47.792;9.628;2022-12-18T01:55:11;-4.50;99.90
18888;DHT22;9576;47.792;9.628;2022-12-18T01:58:14;-4.50;99.90
18888;DHT22;9576;47.792;9.628;2022-12-18T02:01:16;-4.40;99.90
18888;DHT22;9576;47.792;9.628;2022-12-18T02:04:21;-4.30;99.90
18888;DHT22;9576;47.792;9.628;2022-12-18T02:07:28;-4.40;99.90
18888;DHT22;9576;47.792;9.628;2022-12-18T02:10:38;-4.40;99.90
18888;DHT22;9576;47.792;9.628;2022-12-18T02:13:48;-4.30;99.90
18888;DHT22;9576;47.792;9.628;2022-12-18T02:16:59;-4.30;99.90
18888;DHT22;9576;47.792;9.628;2022-12-18T02:20:12;-4.40;99.90
18888;DHT22;9576;47.792;9.628;2022-12-18T02:23:24;-4.40;99.90
18888;DHT22;9576;47.792;9.628;2022-12-18T02:26:36;-4.40;99.90
18888;DHT22;9576;47.792;9.628;2022-12-18T02:29:46;-4.50;99.90
18888;DHT22;9576;47.792;9.628;2022-12-18T02:32:51;-4.50;99.90
18888;DHT22;9576;47.792;9.628;2022-12-18T02:35:55;-4.50;99.90
18888;DHT22;9576;47.792;9.628;2022-12-18T02:38:59;-4.60;99.90
18888;DHT22;9576;47.792;9.628;2022-12-18T02:42:04;-4.70;99.90
18888;DHT22;9576;47.792;9.628;2022-12-18T02:45:09;-4.70;99.90
18888;DHT22;9576;47.792;9.628;2022-12-18T02:48:11;-4.70;99.90
18888;DHT22;9576;47.792;9.628;2022-12-18T02:51:20;-4.70;99.90
18888;DHT22;9576;47.792;9.628;2022-12-18T02:54:42;-4.70;99.90
18888;DHT22;9576;47.792;9.628;2022-12-18T02:57:53;-4.70;99.90
18888;DHT22;9576;47.792;9.628;2022-12-18T03:00:59;-4.80;99.90
18888;DHT22;9576;47.792;9.628;2022-12-18T03:04:06;-4.80;99.90
18888;DHT22;9576;47.792;9.628;2022-12-18T03:07:13;-4.80;99.90
18888;DHT22;9576;47.792;9.628;2022-12-18T03:10:21;-4.80;99.90
18888;DHT22;9576;47.792;9.628;2022-12-18T03:13:30;-4.90;99.90
18888;DHT22;9576;47.792;9.628;2022-12-18T03:16:34;-4.90;99.90
18888;DHT22;9576;47.792;9.628;2022-12-18T03:19:37;-5.00;99.90
18888;DHT22;9576;47.792;9.628;2022-12-18T03:22:43;-5.00;99.90
18888;DHT22;9576;47.792;9.628;2022-12-18T03:25:49;-4.90;99.90
18888;DHT22;9576;47.792;9.628;2022-12-18T03:28:57;-4.80;99.90
18888;DHT22;9576;47.792;9.628;2022-12-18T03:32:04;-4.70;99.90
18888;DHT22;9576;47.792;9.628;2022-12-18T03:35:08;-4.70;99.90
18888;DHT22;9576;47.792;9.628;2022-12-18T03:38:12;-4.70;99.90
18888;DHT22;9576;47.792;9.628;2022-12-18T03:41:19;-4.80;99.90
18888;DHT22;9576;47.792;9.628;2022-12-18T03:44:28;-4.80;99.90
18888;DHT22;9576;47.792;9.628;2022-12-18T03:47:34;-4.70;99.90
18888;DHT22;9576;47.792;9.628;2022-12-18T03:50:44;-4.70;99.90
18888;DHT22;9576;47.792;9.628;2022-12-18T03:53:50;-4.70;99.90
18888;DHT22;9576;47.792;9.628;2022-12-18T03:56:58;-4.70;99.90
18888;DHT22;9576;47.792;9.628;2022-12-18T04:00:07;-4.60;99.90
18888;DHT22;9576;47.792;9.628;2022-12-18T04:03:10;-4.60;99.90
18888;DHT22;9576;47.792;9.628;2022-12-18T04:06:14;-4.50;99.90
18888;DHT22;9576;47.792;9.628;2022-12-18T04:09:18;-4.50;99.90
18888;DHT22;9576;47.792;9.628;2022-12-18T04:12:20;-4.60;99.90
18888;DHT22;9576;47.792;9.628;2022-12-18T04:15:24;-4.70;99.90
18888;DHT22;9576;47.792;9.628;2022-12-18T04:18:26;-4.60;99.90
18888;DHT22;9576;47.792;9.628;2022-12-18T04:21:28;-4.60;99.90
18888;DHT22;9576;47.792;9.628;2022-12-18T04:24:29;-4.60;99.90
18888;DHT22;9576;47.792;9.628;2022-12-18T04:27:31;-4.60;99.90
18888;DHT22;9576;47.792;9.628;2022-12-18T04:30:35;-4.70;99.90
18888;DHT22;9576;47.792;9.628;2022-12-18T04:33:37;-4.70;99.90
18888;DHT22;9576;47.792;9.628;2022-12-18T04:36:39;-4.70;99.90
18888;DHT22;9576;47.792;9.628;2022-12-18T04:39:41;-4.60;99.90
18888;DHT22;9576;47.792;9.628;2022-12-18T04:42:43;-4.70;99.90
18888;DHT22;9576;47.792;9.628;2022-12-18T04:45:46;-4.60;99.90
18888;DHT22;9576;47.792;9.628;2022-12-18T04:48:48;-4.70;99.90
18888;DHT22;9576;47.792;9.628;2022-12-18T04:51:50;-4.70;99.90
18888;DHT22;9576;47.792;9.628;2022-12-18T04:54:52;-4.70;99.90
18888;DHT22;9576;47.792;9.628;2022-12-18T04:57:54;-4.60;99.90
18888;DHT22;9576;47.792;9.628;2022-12-18T05:00:57;-4.70;99.90
18888;DHT22;9576;47.792;9.628;2022-12-18T05:03:59;-4.70;99.90
18888;DHT22;9576;47.792;9.628;2022-12-18T05:07:01;-4.60;99.90
18888;DHT22;9576;47.792;9.628;2022-12-18T05:10:03;-4.60;99.90
18888;DHT22;9576;47.792;9.628;2022-12-18T05:13:08;-4.60;99.90
18888;DHT22;9576;47.792;9.628;2022-12-18T05:16:12;-4.60;99.90
18888;DHT22;9576;47.792;9.628;2022-12-18T05:19:14;-4.50;99.90
18888;DHT22;9576;47.792;9.628;2022-12-18T05:22:16;-4.70;99.90
18888;DHT22;9576;47.792;9.628;2022-12-18T05:25:19;-4.80;99.90
18888;DHT22;9576;47.792;9.628;2022-12-18T05:28:21;-4.70;99.90
18888;DHT22;9576;47.792;9.628;2022-12-18T05:31:25;-4.70;99.90
18888;DHT22;9576;47.792;9.628;2022-12-18T05:34:26;-4.70;99.90
18888;DHT22;9576;47.792;9.628;2022-12-18T05:37:28;-4.70;99.90
18888;DHT22;9576;47.792;9.628;2022-12-18T05:40:30;-4.70;99.90
18888;DHT22;9576;47.792;9.628;2022-12-18T05:43:34;-4.60;99.90
18888;DHT22;9576;47.792;9.628;2022-12-18T05:46:37;-4.50;99.90
18888;DHT22;9576;47.792;9.628;2022-12-18T05:49:42;-4.60;99.90
18888;DHT22;9576;47.792;9.628;2022-12-18T05:52:44;-4.60;99.90
18888;DHT22;9576;47.792;9.628;2022-12-18T05:55:46;-4.50;99.90
18888;DHT22;9576;47.792;9.628;2022-12-18T05:58:51;-4.50;99.90
18888;DHT22;9576;47.792;9.628;2022-12-18T06:01:54;-4.50;99.90
18888;DHT22;9576;47.792;9.628;2022-12-18T06:04:56;-4.40;99.90
18888;DHT22;9576;47.792;9.628;2022-12-18T06:07:58;-4.40;99.90
18888;DHT22;9576;47.792;9.628;2022-12-18T06:11:00;-4.40;99.90
18888;DHT22;9576;47.792;9.628;2022-12-18T06:14:03;-4.30;99.90
18888;DHT22;9576;47.792;9.628;2022-12-18T06:17:06;-4.20;99.90
18888;DHT22;9576;47.792;9.628;2022-12-18T06:20:09;-4.10;99.90
18888;DHT22;9576;47.792;9.628;2022-12-18T06:23:11;-4.10;99.90
18888;DHT22;9576;47.792;9.628;2022-12-18T06:26:15;-4.00;99.90
18888;DHT22;9576;47.792;9.628;2022-12-18T06:29:17;-4.20;99.90
18888;DHT22;9576;47.792;9.628;2022-12-18T06:32:20;-4.20;99.90
18888;DHT22;9576;47.792;9.628;2022-12-18T06:35:22;-4.10;99.90
18888;DHT22;9576;47.792;9.628;2022-12-18T06:38:24;-4.10;99.90
18888;DHT22;9576;47.792;9.628;2022-12-18T06:41:26;-4.20;99.90
18888;DHT22;9576;47.792;9.628;2022-12-18T06:44:28;-4.40;99.90
18888;DHT22;9576;47.792;9.628;2022-12-18T06:47:31;-4.50;99.90
18888;DHT22;9576;47.792;9.628;2022-12-18T06:50:33;-4.50;99.90
18888;DHT22;9576;47.792;9.628;2022-12-18T06:53:35;-4.40;99.90
18888;DHT22;9576;47.792;9.628;2022-12-18T06:56:37;-4.30;99.90
18888;DHT22;9576;47.792;9.628;2022-12-18T06:59:39;-4.40;99.90
18888;DHT22;9576;47.792;9.628;2022-12-18T07:02:42;-4.40;99.90
18888;DHT22;9576;47.792;9.628;2022-12-18T07:05:44;-4.50;99.90
18888;DHT22;9576;47.792;9.628;2022-12-18T07:08:46;-4.50;99.90
18888;DHT22;9576;47.792;9.628;2022-12-18T07:11:49;-4.50;99.90
18888;DHT22;9576;47.792;9.628;2022-12-18T07:14:50;-4.60;99.90
18888;DHT22;9576;47.792;9.628;2022-12-18T07:17:54;-4.60;99.90
18888;DHT22;9576;47.792;9.628;2022-12-18T07:20:56;-4.70;99.90
18888;DHT22;9576;47.792;9.628;2022-12-18T07:23:57;-4.70;99.90
18888;DHT22;9576;47.792;9.628;2022-12-18T07:26:59;-4.60;99.90
18888;DHT22;9576;47.792;9.628;2022-12-18T07:30:01;-4.60;99.90
18888;DHT22;9576;47.792;9.628;2022-12-18T07:33:05;-4.50;99.90
18888;DHT22;9576;47.792;9.628;2022-12-18T07:36:08;-4.60;99.90
18888;DHT22;9576;47.792;9.628;2022-12-18T07:39:11;-4.60;99.90
18888;DHT22;9576;47.792;9.628;2022-12-18T07:42:13;-4.60;99.90
18888;DHT22;9576;47.792;9.628;2022-12-18T07:45:33;-4.60;99.90
18888;DHT22;9576;47.792;9.628;2022-12-18T07:48:37;-4.70;99.90
18888;DHT22;9576;47.792;9.628;2022-12-18T07:51:38;-4.60;99.90
18888;DHT22;9576;47.792;9.628;2022-12-18T07:54:40;-4.50;99.90
18888;DHT22;9576;47.792;9.628;2022-12-18T07:57:42;-4.30;99.90
18888;DHT22;9576;47.792;9.628;2022-12-18T08:00:44;-4.30;99.90
18888;DHT22;9576;47.792;9.628;2022-12-18T08:03:48;-4.20;99.90
18888;DHT22;9576;47.792;9.628;2022-12-18T08:06:50;-4.10;99.90
18888;DHT22;9576;47.792;9.628;2022-12-18T08:09:51;-4.10;99.90
18888;DHT22;9576;47.792;9.628;2022-12-18T08:12:53;-4.00;99.90
18888;DHT22;9576;47.792;9.628;2022-12-18T08:15:56;-4.00;99.90
18888;DHT22;9576;47.792;9.628;2022-12-18T08:19:00;-3.90;99.90
18888;DHT22;9576;47.792;9.628;2022-12-18T08:22:02;-3.80;99.90
18888;DHT22;9576;47.792;9.628;2022-12-18T08:25:04;-3.70;99.90
18888;DHT22;9576;47.792;9.628;2022-12-18T08:28:06;-3.60;99.90
18888;DHT22;9576;47.792;9.628;2022-12-18T08:31:08;-3.60;99.90
18888;DHT22;9576;47.792;9.628;2022-12-18T08:34:12;-3.70;99.90
18888;DHT22;9576;47.792;9.628;2022-12-18T08:37:13;-3.60;99.90
18888;DHT22;9576;47.792;9.628;2022-12-18T08:40:16;-3.70;99.90
18888;DHT22;9576;47.792;9.628;2022-12-18T08:43:17;-3.60;99.90
18888;DHT22;9576;47.792;9.628;2022-12-18T08:46:38;-3.80;99.90
18888;DHT22;9576;47.792;9.628;2022-12-18T08:49:42;-3.70;99.90
18888;DHT22;9576;47.792;9.628;2022-12-18T08:52:44;-3.70;99.90
18888;DHT22;9576;47.792;9.628;2022-12-18T08:55:46;-3.60;99.90
18888;DHT22;9576;47.792;9.628;2022-12-18T08:58:50;-3.60;99.90
18888;DHT22;9576;47.792;9.628;2022-12-18T09:01:53;-3.60;99.90
18888;DHT22;9576;47.792;9.628;2022-12-18T09:04:57;-3.80;99.90
18888;DHT22;9576;47.792;9.628;2022-12-18T09:07:59;-3.80;99.90
18888;DHT22;9576;47.792;9.628;2022-12-18T09:11:00;-3.80;99.90
18888;DHT22;9576;47.792;9.628;2022-12-18T09:14:03;-3.80;99.90
18888;DHT22;9576;47.792;9.628;2022-12-18T09:17:05;-3.80;99.90
18888;DHT22;9576;47.792;9.628;2022-12-18T09:20:09;-3.80;99.90
18888;DHT22;9576;47.792;9.628;2022-12-18T09:23:11;-3.80;99.90
18888;DHT22;9576;47.792;9.628;2022-12-18T09:26:13;-3.70;99.90
18888;DHT22;9576;47.792;9.628;2022-12-18T09:29:15;-3.50;99.90
18888;DHT22;9576;47.792;9.628;2022-12-18T09:32:17;-3.50;99.90
18888;DHT22;9576;47.792;9.628;2022-12-18T09:35:22;-3.40;99.90
18888;DHT22;9576;47.792;9.628;2022-12-18T09:38:23;-3.30;99.90
18888;DHT22;9576;47.792;9.628;2022-12-18T09:41:37;-3.20;99.90
18888;DHT22;9576;47.792;9.628;2022-12-18T09:44:43;-3.10;99.90
18888;DHT22;9576;47.792;9.628;2022-12-18T09:47:47;-3.00;99.90
18888;DHT22;9576;47.792;9.628;2022-12-18T09:50:52;-3.00;99.90
18888;DHT22;9576;47.792;9.628;2022-12-18T09:53:59;-2.90;99.90
18888;DHT22;9576;47.792;9.628;2022-12-18T09:57:04;-2.80;99.90
18888;DHT22;9576;47.792;9.628;2022-12-18T10:00:16;-2.70;99.90
18888;DHT22;9576;47.792;9.628;2022-12-18T10:03:19;-2.60;99.90
18888;DHT22;9576;47.792;9.628;2022-12-18T10:06:26;-2.50;99.90
18888;DHT22;9576;47.792;9.628;2022-12-18T10:09:35;-2.50;99.90
18888;DHT22;9576;47.792;9.628;2022-12-18T10:12:42;-2.40;99.90
18888;DHT22;9576;47.792;9.628;2022-12-18T10:15:54;-2.40;99.90
18888;DHT22;9576;47.792;9.628;2022-12-18T10:19:09;-2.30;99.90
18888;DHT22;9576;47.792;9.628;2022-12-18T10:22:24;-2.20;99.90
18888;DHT22;9576;47.792;9.628;2022-12-18T10:25:33;-2.30;99.90
18888;DHT22;9576;47.792;9.628;2022-12-18T10:28:38;-2.30;99.90
18888;DHT22;9576;47.792;9.628;2022-12-18T10:31:40;-2.40;99.90
18888;DHT22;9576;47.792;9.628;2022-12-18T10:34:45;-2.40;99.90
18888;DHT22;9576;47.792;9.628;2022-12-18T10:38:03;-2.30;99.90
18888;DHT22;9576;47.792;9.628;2022-12-18T10:41:06;-2.20;99.90
18888;DHT22;9576;47.792;9.628;2022-12-18T10:44:16;-2.40;99.90
18888;DHT22;9576;47.792;9.628;2022-12-18T10:47:19;-2.50;99.90
18888;DHT22;9576;47.792;9.628;2022-12-18T10:50:25;-2.50;99.90
18888;DHT22;9576;47.792;9.628;2022-12-18T10:53:31;-2.40;99.90
18888;DHT22;9576;47.792;9.628;2022-12-18T10:56:35;-2.50;99.90
18888;DHT22;9576;47.792;9.628;2022-12-18T10:59:50;-2.40;99.90
18888;DHT22;9576;47.792;9.628;2022-12-18T11:02:52;-2.50;99.90
18888;DHT22;9576;47.792;9.628;2022-12-18T11:06:02;-2.50;99.90
18888;DHT22;9576;47.792;9.628;2022-12-18T11:09:19;-2.40;99.90
18888;DHT22;9576;47.792;9.628;2022-12-18T11:12:22;-2.30;99.90
18888;DHT22;9576;47.792;9.628;2022-12-18T11:15:28;-2.40;99.90
18888;DHT22;9576;47.792;9.628;2022-12-18T11:18:33;-2.20;99.90
18888;DHT22;9576;47.792;9.628;2022-12-18T11:21:39;-2.00;99.90
18888;DHT22;9576;47.792;9.628;2022-12-18T11:24:43;-1.90;99.90
18888;DHT22;9576;47.792;9.628;2022-12-18T11:27:48;-1.80;99.90
18888;DHT22;9576;47.792;9.628;2022-12-18T11:31:12;-1.70;99.90
18888;DHT22;9576;47.792;9.628;2022-12-18T11:34:22;-1.60;99.90
18888;DHT22;9576;47.792;9.628;2022-12-18T11:37:28;-1.50;99.90
18888;DHT22;9576;47.792;9.628;2022-12-18T11:40:36;-1.50;99.90
18888;DHT22;9576;47.792;9.628;2022-12-18T11:43:40;-1.50;99.90
18888;DHT22;9576;47.792;9.628;2022-12-18T11:46:47;-1.60;99.90
18888;DHT22;9576;47.792;9.628;2022-12-18T11:49:52;-1.80;99.90
18888;DHT22;9576;47.792;9.628;2022-12-18T11:52:54;-1.90;99.90
18888;DHT22;9576;47.792;9.628;2022-12-18T11:56:02;-1.80;99.90
18888;DHT22;9576;47.792;9.628;2022-12-18T11:59:12;-1.70;99.90
18888;DHT22;9576;47.792;9.628;2022-12-18T12:02:28;-1.80;99.90
18888;DHT22;9576;47.792;9.628;2022-12-18T12:05:45;-1.80;99.90
18888;DHT22;9576;47.792;9.628;2022-12-18T12:08:57;-1.80;99.90
18888;DHT22;9576;47.792;9.628;2022-12-18T12:12:15;-1.70;99.90
18888;DHT22;9576;47.792;9.628;2022-12-18T12:15:29;-1.90;99.90
18888;DHT22;9576;47.792;9.628;2022-12-18T12:18:47;-2.40;99.90
18888;DHT22;9576;47.792;9.628;2022-12-18T12:21:57;-2.70;99.90
18888;DHT22;9576;47.792;9.628;2022-12-18T12:25:09;-2.70;99.90
18888;DHT22;9576;47.792;9.628;2022-12-18T12:28:26;-2.50;99.90
18888;DHT22;9576;47.792;9.628;2022-12-18T12:31:50;-2.30;99.90
18888;DHT22;9576;47.792;9.628;2022-12-18T12:35:09;-2.20;99.90
18888;DHT22;9576;47.792;9.628;2022-12-18T12:38:17;-2.30;99.90
18888;DHT22;9576;47.792;9.628;2022-12-18T12:41:24;-2.40;99.90
18888;DHT22;9576;47.792;9.628;2022-12-18T12:44:45;-2.40;99.90
18888;DHT22;9576;47.792;9.628;2022-12-18T12:47:50;-2.20;99.90
18888;DHT22;9576;47.792;9.628;2022-12-18T12:50:53;-2.10;99.90
18888;DHT22;9576;47.792;9.628;2022-12-18T12:53:58;-1.90;99.90
18888;DHT22;9576;47.792;9.628;2022-12-18T12:57:05;-1.90;99.90
18888;DHT22;9576;47.792;9.628;2022-12-18T13:00:15;-1.80;99.90
18888;DHT22;9576;47.792;9.628;2022-12-18T13:03:24;-1.80;99.90
18888;DHT22;9576;47.792;9.628;2022-12-18T13:06:36;-1.70;99.90
18888;DHT22;9576;47.792;9.628;2022-12-18T13:10:12;-1.80;99.90
18888;DHT22;9576;47.792;9.628;2022-12-18T13:13:14;-1.90;99.90
18888;DHT22;9576;47.792;9.628;2022-12-18T13:16:21;-1.80;99.90
18888;DHT22;9576;47.792;9.628;2022-12-18T13:19:26;-1.80;99.90
18888;DHT22;9576;47.792;9.628;2022-12-18T13:22:28;-1.80;99.90
18888;DHT22;9576;47.792;9.628;2022-12-18T13:25:34;-1.70;99.90
18888;DHT22;9576;47.792;9.628;2022-12-18T13:28:53;-1.70;99.90
18888;DHT22;9576;47.792;9.628;2022-12-18T13:32:00;-1.60;99.90
18888;DHT22;9576;47.792;9.628;2022-12-18T13:35:37;-1.90;99.90
18888;DHT22;9576;47.792;9.628;2022-12-18T13:38:40;-1.90;99.90
18888;DHT22;9576;47.792;9.628;2022-12-18T13:41:44;-1.90;99.90
18888;DHT22;9576;47.792;9.628;2022-12-18T13:44:46;-2.00;99.90
18888;DHT22;9576;47.792;9.628;2022-12-18T13:47:49;-2.00;99.90
18888;DHT22;9576;47.792;9.628;2022-12-18T13:51:00;-2.20;99.90
18888;DHT22;9576;47.792;9.628;2022-12-18T13:54:17;-2.20;99.90
18888;DHT22;9576;47.792;9.628;2022-12-18T13:57:27;-2.20;99.90
18888;DHT22;9576;47.792;9.628;2022-12-18T14:00:30;-2.20;99.90
18888;DHT22;9576;47.792;9.628;2022-12-18T14:03:33;-2.20;99.90
18888;DHT22;9576;47.792;9.628;2022-12-18T14:06:35;-2.20;99.90
18888;DHT22;9576;47.792;9.628;2022-12-18T14:09:41;-2.20;99.90
18888;DHT22;9576;47.792;9.628;2022-12-18T14:12:46;-2.10;99.90
18888;DHT22;9576;47.792;9.628;2022-12-18T14:16:02;-2.00;99.90
18888;DHT22;9576;47.792;9.628;2022-12-18T14:19:09;-1.90;99.90
18888;DHT22;9576;47.792;9.628;2022-12-18T14:22:16;-1.80;99.90
18888;DHT22;9576;47.792;9.628;2022-12-18T14:25:20;-1.80;99.90
18888;DHT22;9576;47.792;9.628;2022-12-18T14:28:23;-1.80;99.90
18888;DHT22;9576;47.792;9.628;2022-12-18T14:31:28;-2.10;99.90
18888;DHT22;9576;47.792;9.628;2022-12-18T14:34:32;-2.20;99.90
18888;DHT22;9576;47.792;9.628;2022-12-18T14:37:34;-2.30;99.90
18888;DHT22;9576;47.792;9.628;2022-12-18T14:40:36;-2.40;99.90
18888;DHT22;9576;47.792;9.628;2022-12-18T14:43:40;-2.20;99.90
18888;DHT22;9576;47.792;9.628;2022-12-18T14:46:44;-2.20;99.90
18888;DHT22;9576;47.792;9.628;2022-12-18T14:49:48;-2.20;99.90
18888;DHT22;9576;47.792;9.628;2022-12-18T14:52:50;-2.20;99.90
18888;DHT22;9576;47.792;9.628;2022-12-18T14:55:52;-2.20;99.90
18888;DHT22;9576;47.792;9.628;2022-12-18T14:58:55;-2.40;99.90
18888;DHT22;9576;47.792;9.628;2022-12-18T15:02:01;-2.50;99.90
18888;DHT22;9576;47.792;9.628;2022-12-18T15:05:17;-2.40;99.90
18888;DHT22;9576;47.792;9.628;2022-12-18T15:08:34;-2.40;99.90
18888;DHT22;9576;47.792;9.628;2022-12-18T15:11:44;-2.40;99.90
18888;DHT22;9576;47.792;9.628;2022-12-18T15:14:47;-2.60;99.90
18888;DHT22;9576;47.792;9.628;2022-12-18T15:17:56;-2.60;99.90
18888;DHT22;9576;47.792;9.628;2022-12-18T15:21:08;-2.70;99.90
18888;DHT22;9576;47.792;9.628;2022-12-18T15:24:17;-2.80;99.90
18888;DHT22;9576;47.792;9.628;2022-12-18T15:27:25;-2.90;99.90
18888;DHT22;9576;47.792;9.628;2022-12-18T15:30:27;-2.90;99.90
18888;DHT22;9576;47.792;9.628;2022-12-18T15:33:32;-2.90;99.90
18888;DHT22;9576;47.792;9.628;2022-12-18T15:36:35;-2.90;99.90
18888;DHT22;9576;47.792;9.628;2022-12-18T15:39:38;-2.90;99.90
18888;DHT22;9576;47.792;9.628;2022-12-18T15:42:40;-2.80;99.90
18888;DHT22;9576;47.792;9.628;2022-12-18T15:46:00;-2.90;99.90
18888;DHT22;9576;47.792;9.628;2022-12-18T15:49:02;-2.80;99.90
18888;DHT22;9576;47.792;9.628;2022-12-18T15:52:06;-2.80;99.90
18888;DHT22;9576;47.792;9.628;2022-12-18T15:55:11;-2.80;99.90
18888;DHT22;9576;47.792;9.628;2022-12-18T15:58:31;-2.80;99.90
18888;DHT22;9576;47.792;9.628;2022-12-18T16:01:33;-2.70;99.90
18888;DHT22;9576;47.792;9.628;2022-12-18T16:04:35;-2.70;99.90
18888;DHT22;9576;47.792;9.628;2022-12-18T16:07:38;-2.70;99.90
18888;DHT22;9576;47.792;9.628;2022-12-18T16:10:40;-2.70;99.90
18888;DHT22;9576;47.792;9.628;2022-12-18T16:13:42;-2.70;99.90
18888;DHT22;9576;47.792;9.628;2022-12-18T16:16:44;-2.60;99.90
18888;DHT22;9576;47.792;9.628;2022-12-18T16:19:46;-2.70;99.90
18888;DHT22;9576;47.792;9.628;2022-12-18T16:22:50;-2.70;99.90
18888;DHT22;9576;47.792;9.628;2022-12-18T16:25:53;-2.70;99.90
18888;DHT22;9576;47.792;9.628;2022-12-18T16:28:55;-2.80;99.90
18888;DHT22;9576;47.792;9.628;2022-12-18T16:31:58;-2.80;99.90
18888;DHT22;9576;47.792;9.628;2022-12-18T16:35:01;-2.80;99.90
18888;DHT22;9576;47.792;9.628;2022-12-18T16:38:04;-2.90;99.90
18888;DHT22;9576;47.792;9.628;2022-12-18T16:41:17;-3.10;99.90
18888;DHT22;9576;47.792;9.628;2022-12-18T16:44:35;-3.00;99.90
18888;DHT22;9576;47.792;9.628;2022-12-18T16:47:37;-3.00;99.90
18888;DHT22;9576;47.792;9.628;2022-12-18T16:50:39;-3.10;99.90
18888;DHT22;9576;47.792;9.628;2022-12-18T16:53:43;-3.10;99.90
18888;DHT22;9576;47.792;9.628;2022-12-18T16:56:44;-3.20;99.90
18888;DHT22;9576;47.792;9.628;2022-12-18T16:59:49;-3.20;99.90
18888;DHT22;9576;47.792;9.628;2022-12-18T17:02:51;-3.20;99.90
18888;DHT22;9576;47.792;9.628;2022-12-18T17:05:54;-3.30;99.90
18888;DHT22;9576;47.792;9.628;2022-12-18T17:09:07;-3.30;99.90
18888;DHT22;9576;47.792;9.628;2022-12-18T17:12:09;-3.40;99.90
18888;DHT22;9576;47.792;9.628;2022-12-18T17:15:11;-3.60;99.90
18888;DHT22;9576;47.792;9.628;2022-12-18T17:18:13;-3.60;99.90
18888;DHT22;9576;47.792;9.628;2022-12-18T17:21:16;-3.60;99.90
18888;DHT22;9576;47.792;9.628;2022-12-18T17:24:19;-3.60;99.90
18888;DHT22;9576;47.792;9.628;2022-12-18T17:27:22;-3.50;99.90
18888;DHT22;9576;47.792;9.628;2022-12-18T17:30:23;-3.60;99.90
18888;DHT22;9576;47.792;9.628;2022-12-18T17:33:25;-3.50;99.90
18888;DHT22;9576;47.792;9.628;2022-12-18T17:36:27;-3.60;99.90
18888;DHT22;9576;47.792;9.628;2022-12-18T17:39:32;-3.50;99.90
18888;DHT22;9576;47.792;9.628;2022-12-18T17:42:34;-3.60;99.90
18888;DHT22;9576;47.792;9.628;2022-12-18T17:45:38;-3.60;99.90
18888;DHT22;9576;47.792;9.628;2022-12-18T17:48:40;-3.50;99.90
18888;DHT22;9576;47.792;9.628;2022-12-18T17:51:42;-3.70;99.90
18888;DHT22;9576;47.792;9.628;2022-12-18T17:54:45;-3.80;99.90
18888;DHT22;9576;47.792;9.628;2022-12-18T17:57:47;-3.80;99.90
18888;DHT22;9576;47.792;9.628;2022-12-18T18:00:49;-3.80;99.90
18888;DHT22;9576;47.792;9.628;2022-12-18T18:03:52;-3.80;99.90
18888;DHT22;9576;47.792;9.628;2022-12-18T18:06:55;-3.80;99.90
18888;DHT22;9576;47.792;9.628;2022-12-18T18:09:58;-3.80;99.90
18888;DHT22;9576;47.792;9.628;2022-12-18T18:13:00;-3.80;99.90
18888;DHT22;9576;47.792;9.628;2022-12-18T18:16:19;-3.80;99.90
18888;DHT22;9576;47.792;9.628;2022-12-18T18:19:22;-3.80;99.90
18888;DHT22;9576;47.792;9.628;2022-12-18T18:22:25;-3.80;99.90
18888;DHT22;9576;47.792;9.628;2022-12-18T18:25:28;-3.60;99.90
18888;DHT22;9576;47.792;9.628;2022-12-18T18:28:30;-3.60;99.90
18888;DHT22;9576;47.792;9.628;2022-12-18T18:31:33;-3.60;99.90
18888;DHT22;9576;47.792;9.628;2022-12-18T18:34:35;-3.70;99.90
18888;DHT22;9576;47.792;9.628;2022-12-18T18:37:40;-3.70;99.90
18888;DHT22;9576;47.792;9.628;2022-12-18T18:40:44;-3.70;99.90
18888;DHT22;9576;47.792;9.628;2022-12-18T18:43:45;-3.60;99.90
18888;DHT22;9576;47.792;9.628;2022-12-18T18:46:47;-3.50;99.90
18888;DHT22;9576;47.792;9.628;2022-12-18T18:49:57;-3.50;99.90
18888;DHT22;9576;47.792;9.628;2022-12-18T18:52:58;-3.50;99.90
18888;DHT22;9576;47.792;9.628;2022-12-18T18:56:02;-3.50;99.90
18888;DHT22;9576;47.792;9.628;2022-12-18T18:59:04;-3.50;99.90
18888;DHT22;9576;47.792;9.628;2022-12-18T19:02:08;-3.40;99.90
18888;DHT22;9576;47.792;9.628;2022-12-18T19:05:10;-3.50;99.90
18888;DHT22;9576;47.792;9.628;2022-12-18T19:08:12;-3.50;99.90
18888;DHT22;9576;47.792;9.628;2022-12-18T19:11:16;-3.40;99.90
18888;DHT22;9576;47.792;9.628;2022-12-18T19:14:35;-3.40;99.90
18888;DHT22;9576;47.792;9.628;2022-12-18T19:17:37;-3.30;99.90
18888;DHT22;9576;47.792;9.628;2022-12-18T19:20:39;-3.40;99.90
18888;DHT22;9576;47.792;9.628;2022-12-18T19:23:41;-3.50;99.90
18888;DHT22;9576;47.792;9.628;2022-12-18T19:26:44;-3.50;99.90
18888;DHT22;9576;47.792;9.628;2022-12-18T19:29:47;-3.50;99.90
18888;DHT22;9576;47.792;9.628;2022-12-18T19:32:50;-3.50;99.90
18888;DHT22;9576;47.792;9.628;2022-12-18T19:35:52;-3.40;99.90
18888;DHT22;9576;47.792;9.628;2022-12-18T19:38:55;-3.50;99.90
18888;DHT22;9576;47.792;9.628;2022-12-18T19:41:59;-3.60;99.90
18888;DHT22;9576;47.792;9.628;2022-12-18T19:45:01;-3.70;99.90
18888;DHT22;9576;47.792;9.628;2022-12-18T19:48:03;-3.80;99.90